Time;durP1;ratioP1;P1;durP2;ratioP2;P2;SDS_P1;SDS_P2;PMS_P1;PMS_P2;Temp;Humidity;BMP_temperature;BMP_pressure;BME280_temperature;BME280_humidity;BME280_pressure;Samples;Min_cycle;Max_cycle;Signal;HPM_P1;HPM_P2
2023/07/29 00:00:56;;;;;;;1.58;0.40;;;24.50;69.90;;;;;;6116706;29;20656;-50
2023/07/29 00:03:58;;;;;;;0.85;0.50;;;24.50;70.30;;;;;;6114028;29;20043;-52
2023/07/29 00:06:59;;;;;;;0.98;0.60;;;24.60;70.00;;;;;;6119717;29;20035;-52
2023/07/29 00:10:03;;;;;;;1.45;0.50;;;24.70;70.10;;;;;;6119205;29;20043;-54
2023/07/29 00:13:04;;;;;;;0.98;0.38;;;24.50;70.10;;;;;;6119003;29;20044;-53
2023/07/29 00:16:06;;;;;;;0.57;0.30;;;24.70;70.40;;;;;;6099556;29;20655;-52
2023/07/29 00:19:08;;;;;;;1.08;0.50;;;24.50;70.00;;;;;;6113549;29;20031;-53
2023/07/29 00:22:09;;;;;;;0.90;0.40;;;24.60;70.10;;;;;;6115724;29;20412;-51
2023/07/29 00:25:11;;;;;;;0.90;0.45;;;24.60;69.90;;;;;;6112023;29;20044;-52
2023/07/29 00:28:13;;;;;;;0.32;0.30;;;24.60;70.00;;;;;;6117204;29;20735;-50
2023/07/29 00:31:15;;;;;;;0.50;0.28;;;24.50;70.00;;;;;;6120749;29;20067;-54
2023/07/29 00:34:19;;;;;;;0.30;0.20;;;24.60;70.10;;;;;;6122866;28;20043;-52
2023/07/29 00:37:21;;;;;;;0.60;0.35;;;24.60;70.10;;;;;;6124127;29;20035;-54
2023/07/29 00:40:23;;;;;;;0.60;0.38;;;24.50;69.60;;;;;;6122862;29;20036;-52
2023/07/29 00:43:24;;;;;;;0.95;0.30;;;24.70;69.90;;;;;;6122674;29;20127;-53
2023/07/29 00:46:28;;;;;;;0.55;0.38;;;24.10;70.10;;;;;;6107127;29;20039;-51
2023/07/29 00:49:32;;;;;;;1.27;0.40;;;24.40;70.10;;;;;;6124383;29;20086;-51
2023/07/29 00:52:34;;;;;;;1.10;0.20;;;24.30;69.70;;;;;;6124564;29;20051;-52
2023/07/29 00:55:36;;;;;;;0.20;0.20;;;24.00;69.60;;;;;;6121375;29;20273;-52
2023/07/29 00:58:41;;;;;;;0.73;0.30;;;24.50;69.80;;;;;;6122866;28;20044;-51
2023/07/29 01:01:43;;;;;;;0.40;0.30;;;24.40;69.80;;;;;;6114370;29;20043;-54
2023/07/29 01:04:44;;;;;;;0.38;0.30;;;24.50;69.50;;;;;;6127287;29;20039;-54
2023/07/29 01:07:55;;;;;;;0.30;0.20;;;24.50;70.50;;;;;;6127475;29;20043;-55
2023/07/29 01:11:03;;;;;;;0.22;0.20;;;24.10;69.80;;;;;;6130385;29;20039;-55
2023/07/29 01:14:17;;;;;;;0.20;0.20;;;24.20;69.80;;;;;;6112553;29;20641;-56
2023/07/29 01:17:25;;;;;;;0.40;0.20;;;24.50;70.00;;;;;;6131194;29;20126;-56
2023/07/29 01:20:28;;;;;;;0.60;0.40;;;24.40;70.50;;;;;;6131192;29;20046;-55
2023/07/29 01:23:31;;;;;;;0.50;0.20;;;24.50;70.10;;;;;;6133086;29;20057;-55
2023/07/29 01:26:33;;;;;;;0.20;0.13;;;24.50;70.20;;;;;;6115884;29;20039;-56
2023/07/29 01:29:38;;;;;;;0.30;0.30;;;24.50;70.10;;;;;;6131411;29;20059;-56
2023/07/29 01:32:43;;;;;;;0.50;0.20;;;24.30;70.30;;;;;;6131711;29;20086;-55
2023/07/29 01:35:48;;;;;;;0.10;0.10;;;24.80;70.40;;;;;;6131504;29;20123;-56
2023/07/29 01:38:53;;;;;;;0.17;0.10;;;24.60;70.80;;;;;;6130594;29;20502;-55
2023/07/29 01:41:55;;;;;;;0.65;0.20;;;23.00;69.50;;;;;;6131384;29;20031;-55
2023/07/29 01:44:57;;;;;;;0.28;0.15;;;24.00;70.30;;;;;;6128629;28;20039;-55
2023/07/29 01:48:01;;;;;;;0.28;0.20;;;24.50;70.50;;;;;;6109459;29;20051;-54
2023/07/29 01:51:03;;;;;;;0.20;0.10;;;24.60;70.70;;;;;;6127132;29;20039;-55
2023/07/29 01:54:05;;;;;;;0.30;0.30;;;24.50;70.60;;;;;;6129744;29;20035;-56
2023/07/29 01:57:06;;;;;;;0.38;0.22;;;24.50;71.00;;;;;;6126911;28;20090;-56
2023/07/29 02:00:09;;;;;;;0.32;0.10;;;24.50;70.80;;;;;;6127385;29;20047;-54
2023/07/29 02:03:19;;;;;;;0.10;0.10;;;24.50;70.80;;;;;;6128676;29;20039;-56
2023/07/29 02:06:20;;;;;;;0.20;0.20;;;24.40;70.90;;;;;;6130026;29;20035;-55
2023/07/29 02:09:23;;;;;;;0.20;0.20;;;24.60;72.10;;;;;;6128579;29;20050;-56
2023/07/29 02:12:26;;;;;;;0.47;0.20;;;24.50;70.90;;;;;;6127839;29;20059;-56
2023/07/29 02:15:29;;;;;;;0.55;0.20;;;24.40;71.00;;;;;;6128011;29;20079;-55
2023/07/29 02:18:33;;;;;;;0.75;0.20;;;24.90;70.90;;;;;;6128575;29;20046;-56
2023/07/29 02:21:37;;;;;;;0.28;0.20;;;24.60;71.40;;;;;;6127624;29;20090;-56
2023/07/29 02:24:40;;;;;;;0.13;0.10;;;24.40;70.90;;;;;;6129114;29;20075;-56
2023/07/29 02:27:41;;;;;;;0.30;0.20;;;24.50;71.20;;;;;;6129269;29;20039;-54
2023/07/29 02:30:44;;;;;;;0.20;0.20;;;24.50;71.20;;;;;;6127377;29;20039;-56
2023/07/29 02:33:46;;;;;;;0.20;0.20;;;24.50;71.20;;;;;;6129881;29;20043;-54
2023/07/29 02:36:48;;;;;;;0.20;0.20;;;24.50;71.40;;;;;;6128110;29;20102;-55
2023/07/29 02:39:50;;;;;;;0.10;0.10;;;24.20;71.30;;;;;;6129874;29;20102;-56
2023/07/29 02:42:52;;;;;;;0.40;0.20;;;24.40;71.30;;;;;;6127511;29;20050;-56
2023/07/29 02:45:53;;;;;;;0.20;0.20;;;23.90;71.30;;;;;;6127589;29;20043;-55
2023/07/29 02:48:55;;;;;;;0.10;0.10;;;24.40;71.80;;;;;;6127615;29;20043;-55
2023/07/29 02:51:56;;;;;;;0.20;0.20;;;24.40;71.60;;;;;;6129098;29;20411;-55
2023/07/29 02:55:01;;;;;;;0.28;0.25;;;24.20;71.50;;;;;;6127087;29;20122;-56
2023/07/29 02:58:05;;;;;;;0.28;0.28;;;24.50;71.70;;;;;;6129165;28;20102;-56
2023/07/29 03:01:07;;;;;;;0.20;0.10;;;23.90;71.30;;;;;;6128918;29;20075;-56
2023/07/29 03:04:12;;;;;;;0.20;0.20;;;24.50;72.40;;;;;;6128424;29;20125;-56
2023/07/29 03:07:16;;;;;;;0.20;0.20;;;24.00;71.50;;;;;;6129005;29;20223;-56
2023/07/29 03:10:18;;;;;;;0.10;0.10;;;24.00;71.80;;;;;;6125643;29;20047;-57
2023/07/29 03:13:21;;;;;;;0.30;0.30;;;24.60;72.40;;;;;;6121210;29;20403;-57
2023/07/29 03:16:23;;;;;;;0.20;0.20;;;24.40;72.60;;;;;;6104124;29;20047;-57
2023/07/29 03:19:29;;;;;;;0.15;0.15;;;24.30;72.50;;;;;;6120227;29;20498;-57
2023/07/29 03:22:30;;;;;;;0.20;0.20;;;24.50;72.40;;;;;;6119580;29;20310;-57
2023/07/29 03:25:38;;;;;;;0.30;0.20;;;24.30;72.20;;;;;;6120243;29;20122;-57
2023/07/29 03:28:43;;;;;;;0.28;0.17;;;24.40;72.20;;;;;;6120345;29;20126;-57
2023/07/29 03:31:44;;;;;;;0.17;0.17;;;24.30;72.10;;;;;;6103201;29;20098;-57
2023/07/29 03:34:46;;;;;;;0.10;0.10;;;24.30;72.40;;;;;;6120070;29;20054;-57
2023/07/29 03:37:48;;;;;;;0.20;0.20;;;24.30;72.90;;;;;;6120879;29;20034;-57
2023/07/29 03:40:50;;;;;;;0.20;0.10;;;24.50;73.20;;;;;;6119821;29;20478;-57
2023/07/29 03:43:52;;;;;;;0.25;0.25;;;24.10;72.40;;;;;;6119201;29;20042;-57
2023/07/29 03:46:53;;;;;;;0.20;0.20;;;24.40;72.80;;;;;;6119326;29;20320;-57
2023/07/29 03:49:55;;;;;;;0.17;0.17;;;24.40;72.70;;;;;;6120156;29;20043;-57
2023/07/29 03:52:57;;;;;;;0.20;0.20;;;24.40;73.00;;;;;;6120567;29;20394;-57
2023/07/29 03:55:59;;;;;;;0.20;0.20;;;24.30;72.80;;;;;;6119486;29;20399;-57
2023/07/29 03:59:03;;;;;;;0.20;0.20;;;24.30;73.00;;;;;;6121023;28;20102;-57
2023/07/29 04:02:05;;;;;;;0.47;0.30;;;24.40;72.50;;;;;;6121746;29;20100;-57
2023/07/29 04:05:15;;;;;;;0.30;0.15;;;23.80;72.50;;;;;;6119198;29;20043;-58
2023/07/29 04:08:17;;;;;;;0.30;0.20;;;24.30;72.90;;;;;;6121842;28;20050;-57
2023/07/29 04:11:19;;;;;;;0.20;0.20;;;24.30;73.60;;;;;;6124233;29;20546;-57
2023/07/29 04:14:20;;;;;;;0.20;0.20;;;24.00;72.80;;;;;;6123987;29;20035;-58
2023/07/29 04:17:22;;;;;;;0.17;0.17;;;24.40;73.20;;;;;;6124192;29;20058;-57
2023/07/29 04:20:24;;;;;;;0.32;0.32;;;24.00;72.90;;;;;;6124901;29;20046;-57
2023/07/29 04:23:25;;;;;;;0.25;0.20;;;24.20;73.30;;;;;;6125149;29;20094;-57
2023/07/29 04:26:28;;;;;;;0.13;0.13;;;24.50;73.80;;;;;;6124751;29;20054;-57
2023/07/29 04:29:31;;;;;;;0.20;0.20;;;24.20;73.30;;;;;;6124157;29;20530;-57
2023/07/29 04:32:32;;;;;;;0.20;0.15;;;24.30;72.90;;;;;;6124320;29;20086;-57
2023/07/29 04:35:34;;;;;;;0.20;0.20;;;24.30;73.90;;;;;;6124616;29;20054;-57
2023/07/29 04:38:37;;;;;;;0.22;0.20;;;24.40;73.60;;;;;;6123112;29;20042;-57
2023/07/29 04:41:40;;;;;;;0.20;0.20;;;24.70;74.00;;;;;;6107479;29;20046;-57
2023/07/29 04:44:43;;;;;;;0.38;0.10;;;24.20;73.30;;;;;;6107244;29;20320;-57
2023/07/29 04:47:44;;;;;;;0.25;0.20;;;24.30;73.60;;;;;;6124519;29;20411;-57
2023/07/29 04:50:49;;;;;;;0.20;0.20;;;24.20;73.60;;;;;;6122340;29;20103;-57
2023/07/29 04:53:55;;;;;;;0.20;0.10;;;23.30;73.00;;;;;;6121785;29;20051;-57
2023/07/29 04:56:57;;;;;;;0.20;0.20;;;24.40;71.20;;;;;;6106953;28;20049;-57
2023/07/29 05:00:02;;;;;;;0.20;0.20;;;24.30;74.20;;;;;;6123804;29;20031;-57
2023/07/29 05:03:04;;;;;;;0.30;0.20;;;23.80;73.30;;;;;;6114559;29;20262;-57
2023/07/29 05:06:09;;;;;;;0.20;0.20;;;24.20;73.80;;;;;;6107088;29;20561;-57
2023/07/29 05:09:15;;;;;;;0.22;0.20;;;25.40;75.50;;;;;;6110501;29;20586;-57
2023/07/29 05:12:17;;;;;;;0.20;0.20;;;23.90;74.20;;;;;;6111064;29;20122;-57
2023/07/29 05:15:19;;;;;;;0.17;0.17;;;24.20;74.00;;;;;;6111384;29;20094;-57
2023/07/29 05:18:21;;;;;;;0.25;0.20;;;24.30;74.10;;;;;;6112579;29;20047;-57
2023/07/29 05:21:23;;;;;;;0.40;0.20;;;24.30;74.10;;;;;;6109638;28;20038;-57
2023/07/29 05:24:25;;;;;;;0.20;0.20;;;23.10;73.50;;;;;;6110907;29;20053;-57
2023/07/29 05:27:27;;;;;;;0.10;0.10;;;24.20;73.90;;;;;;6110295;29;20043;-57
2023/07/29 05:30:30;;;;;;;0.35;0.28;;;24.20;74.10;;;;;;6112063;29;20035;-57
2023/07/29 05:33:33;;;;;;;0.30;0.30;;;24.30;74.20;;;;;;6110201;29;20246;-57
2023/07/29 05:36:34;;;;;;;0.22;0.10;;;24.30;74.20;;;;;;6113117;29;20531;-57
2023/07/29 05:39:40;;;;;;;0.10;0.10;;;24.10;74.10;;;;;;6111900;29;20047;-57
2023/07/29 05:42:45;;;;;;;0.20;0.20;;;22.90;73.40;;;;;;6109860;29;20043;-57
2023/07/29 05:45:46;;;;;;;0.10;0.10;;;24.30;74.20;;;;;;6112070;29;20290;-57
2023/07/29 05:48:48;;;;;;;0.28;0.20;;;24.30;74.50;;;;;;6112210;29;20050;-57
2023/07/29 05:51:53;;;;;;;0.10;0.10;;;24.30;74.30;;;;;;6111936;29;20047;-57
2023/07/29 05:54:54;;;;;;;0.20;0.20;;;24.20;74.40;;;;;;6111492;29;20123;-57
2023/07/29 05:57:57;;;;;;;0.28;0.28;;;24.30;74.90;;;;;;6110484;28;20553;-53
2023/07/29 06:02:15;;;;;;;1.42;0.20;;;24.10;94.90;;;;;;6431888;27;20318;-58
2023/07/29 06:05:16;;;;;;;0.20;0.20;;;24.30;79.70;;;;;;6402571;27;20038;-56
2023/07/29 06:08:18;;;;;;;0.30;0.20;;;24.20;79.80;;;;;;6414529;27;20041;-56
2023/07/29 06:11:19;;;;;;;0.52;0.20;;;24.30;79.70;;;;;;6414489;27;20035;-58
2023/07/29 06:14:21;;;;;;;1.38;0.10;;;23.70;79.60;;;;;;6414815;27;20234;-58
2023/07/29 06:17:23;;;;;;;0.10;0.10;;;23.70;79.20;;;;;;6413207;27;20037;-58
2023/07/29 06:20:28;;;;;;;0.45;0.20;;;24.40;79.90;;;;;;6413895;27;20094;-58
2023/07/29 06:23:30;;;;;;;0.20;0.20;;;24.20;80.20;;;;;;6412427;27;20057;-58
2023/07/29 06:26:31;;;;;;;0.90;0.17;;;24.40;80.40;;;;;;6413203;27;20467;-58
2023/07/29 06:29:33;;;;;;;0.13;0.10;;;23.90;79.60;;;;;;6415131;27;20114;-58
2023/07/29 06:32:38;;;;;;;0.20;0.20;;;24.30;80.00;;;;;;6412945;27;20049;-58
2023/07/29 06:35:42;;;;;;;0.40;0.20;;;24.40;80.10;;;;;;6414539;27;20037;-58
2023/07/29 06:38:43;;;;;;;0.20;0.20;;;23.80;79.40;;;;;;6415371;27;20113;-58
2023/07/29 06:41:45;;;;;;;0.10;0.10;;;23.80;79.30;;;;;;6414505;27;20684;-58
2023/07/29 06:44:47;;;;;;;0.22;0.10;;;24.30;80.10;;;;;;6412904;27;20435;-58
2023/07/29 06:47:51;;;;;;;0.20;0.20;;;24.30;79.70;;;;;;6411976;27;20588;-58
2023/07/29 06:51:00;;;;;;;1.00;0.20;;;24.40;79.80;;;;;;6412843;27;20041;-57
2023/07/29 06:54:01;;;;;;;0.95;0.20;;;24.30;80.50;;;;;;6413159;27;20045;-58
2023/07/29 06:57:03;;;;;;;0.30;0.20;;;24.30;80.30;;;;;;6407785;27;20038;-58
2023/07/29 07:00:09;;;;;;;0.28;0.28;;;23.90;79.20;;;;;;6385913;27;20496;-58
2023/07/29 07:03:11;;;;;;;0.10;0.10;;;24.40;80.00;;;;;;6386627;27;20042;-58
2023/07/29 07:06:15;;;;;;;0.20;0.20;;;24.50;80.30;;;;;;6386367;27;20066;-58
2023/07/29 07:09:16;;;;;;;0.20;0.20;;;24.30;79.80;;;;;;6388097;27;20042;-58
2023/07/29 07:12:18;;;;;;;0.30;0.20;;;24.20;79.60;;;;;;6377482;27;20041;-58
2023/07/29 07:15:19;;;;;;;0.40;0.20;;;24.40;79.80;;;;;;6369664;27;20039;-57
2023/07/29 07:18:22;;;;;;;0.25;0.20;;;24.30;79.60;;;;;;6371035;27;20691;-57
2023/07/29 07:21:24;;;;;;;0.30;0.30;;;24.40;80.00;;;;;;6369082;27;20039;-58
2023/07/29 07:24:25;;;;;;;0.20;0.20;;;24.40;79.20;;;;;;6370348;27;20065;-58
2023/07/29 07:27:27;;;;;;;0.20;0.20;;;24.40;79.40;;;;;;6370130;27;20043;-58
2023/07/29 07:30:28;;;;;;;0.25;0.25;;;24.40;79.80;;;;;;6368423;27;20567;-58
2023/07/29 07:33:30;;;;;;;0.28;0.25;;;24.30;79.40;;;;;;6368414;27;20528;-58
2023/07/29 07:36:32;;;;;;;0.20;0.20;;;24.30;79.20;;;;;;6367678;27;20063;-58
2023/07/29 07:39:34;;;;;;;0.20;0.20;;;24.30;79.70;;;;;;6370980;27;20496;-58
2023/07/29 07:42:35;;;;;;;0.20;0.20;;;23.90;79.00;;;;;;6368412;27;20037;-58
2023/07/29 07:45:37;;;;;;;0.30;0.20;;;24.30;79.40;;;;;;6369558;27;20043;-58
2023/07/29 07:48:39;;;;;;;0.20;0.20;;;24.30;79.10;;;;;;6370895;27;20030;-58
2023/07/29 07:51:40;;;;;;;0.20;0.20;;;24.30;79.00;;;;;;6369844;27;20073;-58
2023/07/29 07:54:42;;;;;;;0.30;0.22;;;24.40;78.50;;;;;;6369262;27;20038;-58
2023/07/29 07:57:47;;;;;;;0.13;0.10;;;24.40;78.60;;;;;;6368152;27;20035;-58
2023/07/29 08:00:48;;;;;;;0.20;0.20;;;24.40;78.40;;;;;;6368560;27;20038;-57
2023/07/29 08:03:51;;;;;;;0.30;0.30;;;24.40;78.60;;;;;;6367956;27;20113;-58
2023/07/29 08:06:53;;;;;;;0.32;0.30;;;24.40;78.20;;;;;;6368411;27;20058;-57
2023/07/29 08:09:57;;;;;;;0.20;0.20;;;24.00;78.70;;;;;;6369288;27;20035;-57
2023/07/29 08:12:59;;;;;;;0.60;0.30;;;24.50;76.00;;;;;;6368848;27;20046;-55
2023/07/29 08:16:00;;;;;;;0.32;0.30;;;24.50;78.10;;;;;;6369177;27;20494;-57
2023/07/29 08:19:04;;;;;;;0.63;0.22;;;24.50;77.90;;;;;;6395516;27;20042;-58
2023/07/29 08:22:05;;;;;;;1.02;0.38;;;24.30;88.10;;;;;;6399486;27;20555;-57
2023/07/29 08:25:07;;;;;;;0.40;0.40;;;24.30;89.20;;;;;;6399462;27;20045;-55
2023/07/29 08:28:11;;;;;;;0.30;0.20;;;24.30;90.00;;;;;;6389290;27;20545;-56
2023/07/29 08:31:12;;;;;;;0.90;0.20;;;24.00;90.20;;;;;;6387298;27;20031;-57
2023/07/29 08:34:14;;;;;;;0.50;0.30;;;24.10;91.10;;;;;;6389318;27;20250;-54
2023/07/29 08:37:16;;;;;;;0.43;0.20;;;24.40;88.70;;;;;;6387592;27;20508;-53
2023/07/29 08:40:18;;;;;;;0.20;0.20;;;24.30;87.60;;;;;;6369967;27;20053;-55
2023/07/29 08:43:23;;;;;;;0.63;0.30;;;24.50;87.80;;;;;;6386044;27;20027;-54
2023/07/29 08:46:26;;;;;;;0.28;0.20;;;24.10;86.60;;;;;;6384111;27;20501;-56
2023/07/29 08:49:30;;;;;;;0.20;0.20;;;24.40;86.40;;;;;;6386344;27;20115;-55
2023/07/29 08:52:34;;;;;;;0.32;0.30;;;24.50;86.70;;;;;;6385043;27;20035;-55
2023/07/29 08:55:36;;;;;;;1.25;0.20;;;24.30;86.30;;;;;;6382322;27;20102;-55
2023/07/29 08:58:39;;;;;;;0.20;0.20;;;24.50;86.90;;;;;;6385074;27;20439;-56
2023/07/29 09:01:41;;;;;;;0.30;0.30;;;24.20;86.60;;;;;;6384425;27;20054;-56
2023/07/29 09:04:43;;;;;;;0.20;0.20;;;24.40;86.90;;;;;;6366235;27;20473;-54
2023/07/29 09:07:47;;;;;;;0.30;0.30;;;24.50;87.00;;;;;;6384601;27;20042;-54
2023/07/29 09:10:49;;;;;;;0.35;0.35;;;24.50;87.60;;;;;;6382115;27;20331;-56
2023/07/29 09:13:50;;;;;;;0.30;0.20;;;24.50;87.60;;;;;;6382386;27;20050;-55
2023/07/29 09:16:54;;;;;;;0.63;0.40;;;24.50;88.30;;;;;;6384956;27;20061;-56
2023/07/29 09:19:56;;;;;;;0.20;0.20;;;24.50;87.30;;;;;;6383354;27;20035;-56
2023/07/29 09:22:59;;;;;;;0.40;0.35;;;24.30;86.70;;;;;;6382922;27;20039;-56
2023/07/29 09:26:01;;;;;;;0.40;0.30;;;24.40;86.00;;;;;;6346946;27;20043;-54
2023/07/29 09:29:03;;;;;;;0.40;0.40;;;24.50;86.20;;;;;;6364852;27;20031;-56
2023/07/29 09:32:19;;;;;;;0.40;0.30;;;24.50;86.50;;;;;;6364974;27;20434;-56
2023/07/29 09:35:21;;;;;;;0.30;0.25;;;24.50;86.40;;;;;;6382698;27;20384;-55
2023/07/29 09:38:27;;;;;;;0.35;0.30;;;24.60;86.60;;;;;;6382458;27;20038;-56
2023/07/29 09:41:30;;;;;;;0.20;0.20;;;24.60;86.90;;;;;;6348589;27;20110;-55
2023/07/29 09:44:36;;;;;;;0.20;0.20;;;24.50;86.50;;;;;;6363818;27;20035;-57
2023/07/29 09:47:37;;;;;;;0.50;0.28;;;24.50;86.90;;;;;;6363436;27;20043;-56
2023/07/29 09:50:40;;;;;;;0.28;0.20;;;24.70;86.80;;;;;;6382340;27;20049;-54
2023/07/29 09:53:44;;;;;;;0.35;0.30;;;24.60;86.30;;;;;;6382144;27;20071;-56
2023/07/29 09:56:48;;;;;;;0.38;0.38;;;24.50;96.40;;;;;;6381993;27;20042;-56
2023/07/29 09:59:55;;;;;;;0.40;0.30;;;;;;;;;;6382356;27;20050;-54
2023/07/29 10:02:57;;;;;;;0.40;0.20;;;24.60;83.80;;;;;;6382427;27;20046;-55
2023/07/29 10:06:04;;;;;;;0.20;0.20;;;24.70;85.70;;;;;;6364825;27;20027;-55
2023/07/29 10:09:07;;;;;;;0.40;0.30;;;24.70;85.90;;;;;;6366490;27;20035;-55
2023/07/29 10:12:11;;;;;;;0.40;0.40;;;24.80;86.00;;;;;;6384856;27;20046;-54
2023/07/29 10:15:13;;;;;;;0.30;0.20;;;24.70;85.50;;;;;;6365648;27;20034;-56
2023/07/29 10:18:15;;;;;;;0.35;0.28;;;24.70;85.40;;;;;;6383517;27;20046;-56
2023/07/29 10:21:18;;;;;;;0.30;0.20;;;24.70;85.30;;;;;;6385052;27;20051;-55
2023/07/29 10:24:28;;;;;;;0.20;0.20;;;24.70;86.00;;;;;;6385432;27;20901;-56
2023/07/29 10:27:33;;;;;;;0.10;0.10;;;24.70;87.20;;;;;;6366143;27;20041;-57
2023/07/29 10:30:34;;;;;;;0.60;0.38;;;24.80;85.40;;;;;;6386789;27;20129;-57
2023/07/29 10:33:37;;;;;;;0.50;0.30;;;24.60;84.90;;;;;;6368340;27;20042;-55
2023/07/29 10:36:42;;;;;;;0.20;0.20;;;24.60;87.20;;;;;;6385341;27;20065;-57
2023/07/29 10:39:54;;;;;;;0.30;0.22;;;24.70;81.30;;;;;;6386373;27;20047;-57
2023/07/29 10:43:03;;;;;;;;;;;24.80;81.20;;;;;;6369135;27;20091;-56
2023/07/29 10:46:16;;;;;;;0.30;0.20;;;24.90;81.60;;;;;;6365611;27;19919;-55
2023/07/29 10:49:23;;;;;;;0.80;0.30;;;24.80;80.80;;;;;;6387753;27;20103;-57
2023/07/29 10:52:37;;;;;;;0.73;0.20;;;24.90;80.70;;;;;;6386937;27;20039;-56
2023/07/29 10:55:39;;;;;;;1.02;0.30;;;24.10;80.40;;;;;;6370446;27;20039;-55
2023/07/29 10:58:43;;;;;;;0.73;0.40;;;24.70;80.20;;;;;;6387646;27;20070;-56
2023/07/29 11:01:52;;;;;;;0.30;0.30;;;25.10;80.80;;;;;;6388388;27;20396;-57
2023/07/29 11:04:54;;;;;;;0.35;0.30;;;24.90;80.30;;;;;;6373422;27;20039;-56
2023/07/29 11:07:58;;;;;;;0.40;0.30;;;25.00;80.10;;;;;;6390757;27;20045;-56
2023/07/29 11:11:03;;;;;;;0.40;0.40;;;24.90;79.60;;;;;;6391724;27;20039;-56
2023/07/29 11:14:05;;;;;;;0.50;0.30;;;25.00;79.40;;;;;;6372864;27;20042;-55
2023/07/29 11:17:07;;;;;;;0.38;0.38;;;24.70;79.20;;;;;;6391326;27;20047;-56
2023/07/29 11:20:12;;;;;;;0.45;0.38;;;25.00;80.00;;;;;;6390067;27;20049;-57
2023/07/29 11:23:14;;;;;;;0.30;0.30;;;24.90;79.70;;;;;;6391279;27;20042;-56
2023/07/29 11:26:15;;;;;;;0.47;0.38;;;25.00;80.30;;;;;;6388273;27;20046;-53
2023/07/29 11:29:20;;;;;;;0.30;0.30;;;24.80;80.20;;;;;;6389141;27;20035;-56
2023/07/29 11:32:21;;;;;;;0.30;0.30;;;24.70;80.50;;;;;;6391926;27;20051;-57
2023/07/29 11:35:26;;;;;;;0.68;0.30;;;24.70;80.90;;;;;;6391624;27;20043;-56
2023/07/29 11:38:36;;;;;;;0.40;0.30;;;24.70;81.40;;;;;;6390913;27;20039;-56
2023/07/29 11:41:42;;;;;;;0.68;0.30;;;24.90;82.10;;;;;;6390638;27;20047;-57
2023/07/29 11:44:44;;;;;;;0.20;0.20;;;24.90;86.20;;;;;;6390622;27;20042;-55
2023/07/29 11:47:49;;;;;;;0.32;0.32;;;24.90;78.40;;;;;;6391036;27;20410;-55
2023/07/29 11:50:54;;;;;;;0.43;0.20;;;25.60;78.90;;;;;;6391137;27;20106;-55
2023/07/29 11:53:57;;;;;;;0.50;0.30;;;25.00;78.00;;;;;;6391683;27;20546;-56
2023/07/29 11:56:59;;;;;;;0.20;0.20;;;25.00;78.10;;;;;;6391367;27;20039;-56
2023/07/29 12:00:03;;;;;;;0.20;0.20;;;24.90;78.00;;;;;;6388850;27;20051;-55
2023/07/29 12:03:11;;;;;;;0.50;0.30;;;25.00;77.60;;;;;;6389687;27;20042;-55
2023/07/29 12:06:13;;;;;;;0.47;0.30;;;25.00;77.60;;;;;;6389488;27;20072;-56
2023/07/29 12:09:17;;;;;;;0.40;0.28;;;25.10;77.60;;;;;;6391137;27;20433;-56
2023/07/29 12:12:18;;;;;;;0.52;0.30;;;25.00;77.30;;;;;;6390098;27;20038;-55
2023/07/29 12:15:24;;;;;;;0.57;0.40;;;24.90;77.80;;;;;;6390800;27;20042;-54
2023/07/29 12:18:30;;;;;;;0.32;0.32;;;25.00;77.60;;;;;;6390202;27;21030;-54
2023/07/29 12:21:35;;;;;;;0.30;0.25;;;25.00;77.70;;;;;;6387573;27;20047;-56
2023/07/29 12:24:39;;;;;;;0.40;0.20;;;25.10;77.80;;;;;;6387352;27;20417;-56
2023/07/29 12:27:49;;;;;;;0.40;0.32;;;24.90;77.60;;;;;;6388504;27;20067;-56
2023/07/29 12:30:53;;;;;;;0.50;0.35;;;25.10;78.20;;;;;;6388102;27;20420;-55
2023/07/29 12:33:57;;;;;;;0.50;0.50;;;24.80;78.10;;;;;;6389205;27;20444;-57
2023/07/29 12:37:03;;;;;;;0.30;0.25;;;25.10;78.00;;;;;;6389667;27;20046;-57
2023/07/29 12:40:05;;;;;;;0.93;0.45;;;25.00;78.10;;;;;;6388876;27;20038;-56
2023/07/29 12:43:07;;;;;;;0.20;0.20;;;25.00;77.80;;;;;;6390324;27;20490;-55
2023/07/29 12:46:09;;;;;;;0.30;0.30;;;25.00;77.80;;;;;;6389238;27;20039;-55
2023/07/29 12:49:11;;;;;;;0.20;0.20;;;25.10;77.60;;;;;;6388941;27;20565;-57
2023/07/29 12:52:12;;;;;;;0.28;0.20;;;24.70;77.40;;;;;;6389236;27;20050;-56
2023/07/29 12:55:15;;;;;;;0.20;0.20;;;24.60;77.80;;;;;;6389228;27;20485;-57
2023/07/29 12:58:18;;;;;;;0.43;0.40;;;24.50;77.40;;;;;;6390438;27;20339;-57
2023/07/29 13:01:19;;;;;;;0.35;0.35;;;25.00;77.90;;;;;;6389130;27;20054;-56
2023/07/29 13:04:21;;;;;;;0.60;0.30;;;24.70;78.10;;;;;;6389936;27;20427;-56
2023/07/29 13:07:23;;;;;;;0.30;0.20;;;25.10;77.60;;;;;;6389184;27;20047;-56
2023/07/29 13:10:25;;;;;;;0.40;0.40;;;25.00;78.50;;;;;;6386971;27;20042;-56
2023/07/29 13:13:27;;;;;;;0.50;0.40;;;25.10;78.80;;;;;;6389158;27;20038;-56
2023/07/29 13:16:29;;;;;;;0.40;0.30;;;25.10;79.20;;;;;;6390705;27;20039;-55
2023/07/29 13:19:31;;;;;;;0.40;0.30;;;24.80;78.90;;;;;;6372032;27;20046;-56
2023/07/29 13:22:33;;;;;;;0.70;0.40;;;25.10;80.10;;;;;;6390194;27;20042;-57
2023/07/29 13:25:37;;;;;;;0.30;0.30;;;25.10;78.50;;;;;;6391240;27;20496;-57
2023/07/29 13:28:39;;;;;;;0.30;0.30;;;24.90;81.20;;;;;;6393172;27;20034;-54
2023/07/29 13:31:41;;;;;;;0.35;0.20;;;24.90;79.10;;;;;;6392751;27;20053;-54
2023/07/29 13:34:43;;;;;;;0.30;0.30;;;25.10;82.60;;;;;;6391185;27;20085;-56
2023/07/29 13:37:45;;;;;;;0.20;0.20;;;;;;;;;;6393130;27;20030;-56
2023/07/29 13:40:47;;;;;;;0.30;0.30;;;25.00;75.60;;;;;;6391308;27;20035;-57
2023/07/29 13:43:48;;;;;;;0.30;0.30;;;25.40;77.50;;;;;;6389830;27;20031;-55
2023/07/29 13:46:50;;;;;;;0.40;0.22;;;25.10;77.10;;;;;;6389675;27;20035;-55
2023/07/29 13:49:53;;;;;;;0.20;0.20;;;25.10;77.00;;;;;;6389726;27;20057;-57
2023/07/29 13:52:55;;;;;;;0.32;0.30;;;25.40;77.30;;;;;;6388371;27;20043;-56
2023/07/29 13:55:57;;;;;;;0.20;0.20;;;25.10;77.00;;;;;;6391671;27;20035;-56
2023/07/29 13:59:02;;;;;;;0.30;0.30;;;25.10;77.60;;;;;;6390262;27;20046;-54
2023/07/29 14:02:04;;;;;;;0.30;0.30;;;24.80;77.10;;;;;;6389210;27;20552;-56
2023/07/29 14:05:07;;;;;;;0.70;0.30;;;25.20;74.20;;;;;;6389443;27;20042;-54
2023/07/29 14:08:08;;;;;;;0.30;0.30;;;25.20;77.20;;;;;;6391032;27;20069;-57
2023/07/29 14:11:10;;;;;;;0.50;0.40;;;25.00;77.70;;;;;;6391632;27;20043;-55
2023/07/29 14:14:12;;;;;;;1.13;0.30;;;25.10;77.60;;;;;;6390811;27;20031;-54
2023/07/29 14:17:13;;;;;;;0.20;0.20;;;25.10;77.70;;;;;;6390144;27;20035;-55
2023/07/29 14:20:15;;;;;;;0.30;0.30;;;25.10;77.50;;;;;;6390440;27;20045;-54
2023/07/29 14:23:16;;;;;;;0.52;0.32;;;25.10;78.00;;;;;;6394307;27;20468;-56
2023/07/29 14:26:18;;;;;;;0.35;0.35;;;25.20;77.70;;;;;;6397211;27;20055;-54
2023/07/29 14:29:21;;;;;;;0.50;0.38;;;25.20;77.70;;;;;;6399142;27;20031;-56
2023/07/29 14:32:23;;;;;;;0.32;0.30;;;25.30;77.50;;;;;;6396877;27;20035;-56
2023/07/29 14:35:26;;;;;;;1.05;0.40;;;25.20;77.80;;;;;;6398842;27;20554;-56
2023/07/29 14:38:28;;;;;;;0.20;0.20;;;25.10;77.70;;;;;;6398342;27;20043;-55
2023/07/29 14:41:30;;;;;;;0.60;0.32;;;25.00;77.60;;;;;;6397424;27;20046;-55
2023/07/29 14:44:32;;;;;;;0.43;0.35;;;25.30;78.10;;;;;;6379973;27;20045;-57
2023/07/29 14:47:34;;;;;;;0.60;0.50;;;25.20;77.70;;;;;;6397567;27;20077;-55
2023/07/29 14:50:38;;;;;;;0.55;0.40;;;25.30;77.40;;;;;;6399736;27;20035;-55
2023/07/29 14:53:40;;;;;;;0.45;0.30;;;25.20;77.60;;;;;;6398551;27;20038;-56
2023/07/29 14:56:42;;;;;;;0.22;0.20;;;25.20;92.10;;;;;;6397982;27;20437;-55
2023/07/29 14:59:44;;;;;;;0.45;0.28;;;25.30;77.60;;;;;;6397932;27;20035;-55
2023/07/29 15:02:45;;;;;;;0.45;0.30;;;25.20;77.90;;;;;;6399166;27;20053;-56
2023/07/29 15:05:48;;;;;;;0.68;0.40;;;25.20;77.70;;;;;;6400149;27;20046;-56
2023/07/29 15:08:50;;;;;;;0.38;0.30;;;25.20;77.60;;;;;;6400365;27;20704;-55
2023/07/29 15:11:53;;;;;;;0.20;0.20;;;25.30;78.20;;;;;;6400922;27;20034;-55
2023/07/29 15:14:56;;;;;;;0.85;0.40;;;25.20;78.30;;;;;;6398903;27;20247;-56
2023/07/29 15:18:00;;;;;;;0.40;0.35;;;25.70;79.10;;;;;;6397778;27;20038;-55
2023/07/29 15:21:02;;;;;;;0.30;0.28;;;25.20;78.20;;;;;;6398035;27;20406;-55
2023/07/29 15:24:04;;;;;;;0.40;0.35;;;25.30;78.10;;;;;;6393798;27;20053;-55
2023/07/29 15:27:11;;;;;;;1.13;0.30;;;24.90;77.90;;;;;;6393018;27;20039;-56
2023/07/29 15:30:13;;;;;;;0.30;0.30;;;25.20;78.00;;;;;;6393452;27;20143;-56
2023/07/29 15:33:17;;;;;;;0.30;0.30;;;25.20;76.50;;;;;;6394311;27;20091;-57
2023/07/29 15:36:18;;;;;;;0.30;0.30;;;25.30;78.40;;;;;;6395543;27;20045;-57
2023/07/29 15:39:21;;;;;;;0.20;0.20;;;25.20;77.80;;;;;;6394179;27;20030;-54
2023/07/29 15:42:23;;;;;;;0.40;0.30;;;24.90;78.60;;;;;;6394312;27;20043;-55
2023/07/29 15:45:25;;;;;;;0.38;0.38;;;25.30;78.20;;;;;;6394675;27;20115;-55
2023/07/29 15:48:27;;;;;;;0.50;0.32;;;25.20;78.30;;;;;;6376268;27;20045;-57
2023/07/29 15:51:28;;;;;;;0.40;0.35;;;25.10;78.10;;;;;;6393911;27;20049;-55
2023/07/29 15:54:33;;;;;;;0.50;0.30;;;25.20;78.40;;;;;;6394072;27;20045;-57